createdAt,value
2022-11-03T00:01:37.509Z,1.60
2022-11-03T00:04:06.545Z,1.85
2022-11-03T00:06:34.650Z,1.80
2022-11-03T00:09:05.255Z,1.58
2022-11-03T00:11:35.489Z,1.58
2022-11-03T00:14:03.924Z,1.40
2022-11-03T00:16:32.216Z,1.70
2022-11-03T00:19:00.132Z,1.42
2022-11-03T00:21:28.344Z,1.40
2022-11-03T00:23:56.350Z,1.50
2022-11-03T00:26:25.777Z,1.30
2022-11-03T00:28:56.455Z,1.60
2022-11-03T00:31:26.342Z,1.17
2022-11-03T00:33:55.512Z,1.60
2022-11-03T00:36:25.308Z,1.48
2022-11-03T00:38:53.808Z,1.38
2022-11-03T00:41:22.999Z,1.70
2022-11-03T00:43:51.771Z,1.30
2022-11-03T00:46:22.744Z,1.27
2022-11-03T00:48:51.291Z,1.10
2022-11-03T00:51:20.719Z,1.40
2022-11-03T00:53:50.105Z,1.20
2022-11-03T00:56:19.720Z,1.23
2022-11-03T00:58:47.900Z,1.20
2022-11-03T01:01:18.453Z,1.17
2022-11-03T01:04:03.479Z,1.35
2022-11-03T01:06:50.322Z,1.30
2022-11-03T01:09:18.763Z,1.08
2022-11-03T01:11:54.500Z,1.38
2022-11-03T01:14:22.560Z,1.30
2022-11-03T01:16:50.483Z,1.08
2022-11-03T01:19:19.912Z,1.13
2022-11-03T01:21:47.924Z,1.08
2022-11-03T01:24:15.811Z,1.38
2022-11-03T01:26:43.842Z,1.20
2022-11-03T01:29:11.842Z,0.95
2022-11-03T01:31:39.848Z,0.98
2022-11-03T01:34:07.848Z,1.30
2022-11-03T01:36:37.106Z,1.25
2022-11-03T01:39:05.087Z,1.35
2022-11-03T01:41:32.996Z,1.48
2022-11-03T01:44:35.917Z,1.17
2022-11-03T01:47:19.278Z,1.27
2022-11-03T01:49:51.311Z,1.15
2022-11-03T01:52:25.301Z,1.50
2022-11-03T01:54:58.206Z,1.30
2022-11-03T01:57:33.860Z,1.05
2022-11-03T02:00:03.452Z,1.23
2022-11-03T02:02:40.890Z,1.55
2022-11-03T02:05:11.716Z,1.42
2022-11-03T02:07:47.037Z,1.40
2022-11-03T02:10:15.182Z,1.15
2022-11-03T02:12:44.475Z,1.10
2022-11-03T02:15:14.982Z,1.20
2022-11-03T02:17:43.928Z,1.30
2022-11-03T02:20:15.190Z,1.50
2022-11-03T02:23:21.223Z,1.40
2022-11-03T02:25:53.446Z,1.50
2022-11-03T02:28:24.074Z,1.20
2022-11-03T02:31:00.839Z,1.00
2022-11-03T02:33:38.805Z,1.20
2022-11-03T02:36:13.498Z,1.10
2022-11-03T02:38:48.515Z,1.20
2022-11-03T02:41:19.815Z,1.20
2022-11-03T02:43:48.951Z,1.00
2022-11-03T02:46:18.386Z,0.90
2022-11-03T02:48:46.933Z,1.00
2022-11-03T02:51:14.836Z,1.33
2022-11-03T02:53:49.131Z,0.90
2022-11-03T02:56:23.168Z,1.30
2022-11-03T02:58:58.804Z,1.10
2022-11-03T03:01:34.612Z,0.95
2022-11-03T03:04:07.358Z,1.15
2022-11-03T03:06:39.465Z,1.23
2022-11-03T03:09:14.172Z,1.00
2022-11-03T03:11:46.070Z,1.00
2022-11-03T03:14:18.384Z,1.10
2022-11-03T03:16:52.852Z,1.25
2022-11-03T03:19:43.242Z,1.15
2022-11-03T03:22:17.588Z,1.20
2022-11-03T03:24:52.763Z,0.90
2022-11-03T03:27:26.360Z,1.13
2022-11-03T03:29:58.723Z,0.90
2022-11-03T03:32:29.939Z,1.38
2022-11-03T03:35:00.507Z,1.02
2022-11-03T03:37:30.496Z,1.02
2022-11-03T03:40:04.710Z,1.02
2022-11-03T03:42:35.559Z,1.10
2022-11-03T03:45:05.456Z,1.23
2022-11-03T03:47:35.728Z,1.02
2022-11-03T03:50:04.150Z,1.13
2022-11-03T03:52:34.752Z,1.27
2022-11-03T03:55:03.006Z,1.10
2022-11-03T03:57:34.346Z,1.23
2022-11-03T04:00:02.256Z,1.33
2022-11-03T04:02:40.287Z,0.90
2022-11-03T04:05:08.351Z,0.90
2022-11-03T04:07:48.507Z,0.95
2022-11-03T04:10:17.292Z,1.10
2022-11-03T04:13:04.958Z,1.00
2022-11-03T04:15:51.186Z,1.00
2022-11-03T04:18:37.315Z,1.17
2022-11-03T04:21:23.536Z,0.90
2022-11-03T04:23:51.512Z,1.20
2022-11-03T04:26:23.032Z,1.08
2022-11-03T04:28:54.112Z,0.73
2022-11-03T04:31:22.643Z,0.98
2022-11-03T04:33:50.528Z,1.25
2022-11-03T04:36:21.770Z,0.90
2022-11-03T04:38:50.527Z,1.00
2022-11-03T04:41:20.907Z,1.00
2022-11-03T04:43:49.598Z,0.77
2022-11-03T04:46:25.938Z,0.95
2022-11-03T04:48:54.546Z,1.27
2022-11-03T04:51:25.222Z,0.98
2022-11-03T04:53:56.629Z,0.82
2022-11-03T04:56:26.050Z,1.30
2022-11-03T04:58:55.027Z,0.80
2022-11-03T05:01:25.357Z,1.15
2022-11-03T05:03:55.435Z,1.10
2022-11-03T05:06:24.799Z,1.27
2022-11-03T05:08:56.819Z,0.90
2022-11-03T05:11:31.925Z,1.15
2022-11-03T05:14:02.821Z,1.10
2022-11-03T05:16:32.742Z,1.02
2022-11-03T05:19:01.154Z,1.05
2022-11-03T05:21:29.558Z,1.25
2022-11-03T05:24:02.405Z,1.15
2022-11-03T05:26:33.939Z,1.02
2022-11-03T05:29:04.681Z,1.23
2022-11-03T05:31:36.415Z,0.90
2022-11-03T05:34:26.223Z,1.20
2022-11-03T05:36:54.186Z,1.10
2022-11-03T05:39:29.883Z,1.40
2022-11-03T05:41:59.284Z,0.90
2022-11-03T05:44:32.100Z,0.90
2022-11-03T05:47:05.895Z,0.95
2022-11-03T05:49:36.317Z,1.00
2022-11-03T05:52:04.381Z,0.90
2022-11-03T05:54:35.211Z,0.93
2022-11-03T05:57:03.171Z,0.90
2022-11-03T05:59:31.106Z,0.90
2022-11-03T06:02:02.079Z,0.93
2022-11-03T06:04:33.909Z,1.27
2022-11-03T06:07:05.072Z,1.00
2022-11-03T06:09:34.881Z,1.10
2022-11-03T06:12:06.652Z,0.90
2022-11-03T06:14:37.438Z,0.90
2022-11-03T06:17:08.522Z,1.10
2022-11-03T06:19:39.362Z,0.77
2022-11-03T06:22:15.411Z,0.80
2022-11-03T06:24:43.742Z,1.00
2022-11-03T06:27:15.463Z,0.68
2022-11-03T06:29:47.683Z,0.93
2022-11-03T06:32:17.043Z,0.70
2022-11-03T06:34:48.374Z,0.77
2022-11-03T06:37:21.138Z,1.00
2022-11-03T06:39:49.651Z,0.90
2022-11-03T06:42:20.825Z,1.23
2022-11-03T06:44:51.151Z,1.05
2022-11-03T06:47:25.177Z,1.00
2022-11-03T06:49:55.888Z,1.23
2022-11-03T06:52:27.570Z,1.10
2022-11-03T06:55:02.485Z,0.80
2022-11-03T06:57:35.016Z,1.25
2022-11-03T07:00:20.414Z,0.70
2022-11-03T07:03:07.092Z,0.70
2022-11-03T07:05:35.895Z,0.90
2022-11-03T07:08:12.552Z,0.85
2022-11-03T07:10:40.503Z,0.85
2022-11-03T07:13:15.172Z,0.85
2022-11-03T07:15:45.100Z,0.75
2022-11-03T07:18:23.047Z,1.40
2022-11-03T07:20:52.518Z,0.93
2022-11-03T07:23:23.342Z,1.10
2022-11-03T07:25:55.112Z,1.65
2022-11-03T07:28:25.657Z,1.20
2022-11-03T07:30:53.717Z,1.00
2022-11-03T07:33:26.564Z,1.27
2022-11-03T07:38:49.175Z,1.20
2022-11-03T07:41:20.593Z,1.45
2022-11-03T07:43:55.826Z,1.20
2022-11-03T07:46:25.230Z,1.20
2022-11-03T07:48:56.649Z,1.65
2022-11-03T07:51:27.234Z,1.38
2022-11-03T07:53:58.035Z,1.30
2022-11-03T07:56:28.271Z,1.65
2022-11-03T07:59:01.578Z,1.50
2022-11-03T08:01:32.617Z,1.48
2022-11-03T08:04:05.750Z,1.70
2022-11-03T08:06:34.423Z,1.50
2022-11-03T08:09:02.307Z,2.00
2022-11-03T08:11:30.282Z,1.83
2022-11-03T08:13:58.544Z,1.45
2022-11-03T08:16:26.645Z,1.30
2022-11-03T08:18:54.542Z,1.35
2022-11-03T08:21:24.196Z,1.50
2022-11-03T08:23:52.414Z,1.20
2022-11-03T08:26:20.347Z,1.70
2022-11-03T08:28:48.434Z,1.15
2022-11-03T08:31:16.335Z,1.73
2022-11-03T08:33:44.613Z,1.08
2022-11-03T08:36:12.950Z,1.50
2022-11-03T08:38:42.331Z,1.95
2022-11-03T08:41:10.243Z,1.70
2022-11-03T08:43:38.112Z,1.83
2022-11-03T08:46:15.897Z,1.65
2022-11-03T08:48:45.008Z,1.60
2022-11-03T08:51:14.058Z,1.92
2022-11-03T08:53:44.042Z,1.90
2022-11-03T08:56:13.685Z,1.55
2022-11-03T08:58:44.889Z,1.52
2022-11-03T09:01:13.001Z,1.45
2022-11-03T09:03:41.274Z,1.38
2022-11-03T09:06:09.684Z,1.40
2022-11-03T09:11:26.858Z,1.55
2022-11-03T09:13:54.743Z,1.38
2022-11-03T09:16:22.683Z,1.73
2022-11-03T09:18:50.618Z,1.30
2022-11-03T09:21:18.533Z,2.30
2022-11-03T09:23:46.526Z,1.63
2022-11-03T09:26:14.448Z,1.50
2022-11-03T09:28:43.721Z,2.03
2022-11-03T09:31:11.632Z,1.65
2022-11-03T09:33:39.531Z,1.75
2022-11-03T09:36:08.047Z,1.67
2022-11-03T09:38:35.926Z,1.33
2022-11-03T09:41:13.458Z,1.48
2022-11-03T09:43:55.108Z,2.20
2022-11-03T09:46:23.114Z,2.10
2022-11-03T09:48:51.092Z,1.73
2022-11-03T09:51:21.806Z,1.50
2022-11-03T09:53:49.997Z,1.98
2022-11-03T09:56:20.444Z,1.20
2022-11-03T09:58:53.990Z,1.95
2022-11-03T10:01:23.953Z,2.05
2022-11-03T10:03:52.308Z,1.63
2022-11-03T10:06:21.364Z,1.63
2022-11-03T10:08:50.390Z,1.50
2022-11-03T10:11:18.791Z,1.45
2022-11-03T10:13:49.080Z,1.75
2022-11-03T10:16:19.807Z,1.40
2022-11-03T10:18:49.607Z,1.92
2022-11-03T10:21:19.321Z,1.27
2022-11-03T10:23:47.246Z,1.70
2022-11-03T10:26:19.011Z,1.67
2022-11-03T10:29:00.859Z,1.42
2022-11-03T10:31:36.841Z,1.58
2022-11-03T10:34:07.768Z,1.42
2022-11-03T10:36:36.325Z,1.85
2022-11-03T10:39:26.713Z,1.33
2022-11-03T10:41:59.445Z,1.88
2022-11-03T10:44:28.679Z,1.55
2022-11-03T10:46:58.603Z,1.42
2022-11-03T10:49:29.419Z,1.50
2022-11-03T10:52:09.320Z,1.80
2022-11-03T10:54:38.183Z,1.30
2022-11-03T10:57:06.970Z,1.33
2022-11-03T10:59:38.884Z,1.73
2022-11-03T11:02:16.293Z,1.42
2022-11-03T11:04:47.004Z,1.40
2022-11-03T11:07:23.289Z,1.60
2022-11-03T11:09:51.487Z,1.40
2022-11-03T11:12:23.329Z,1.27
2022-11-03T11:14:56.762Z,1.65
2022-11-03T11:17:55.046Z,1.52
2022-11-03T11:20:34.483Z,1.10
2022-11-03T11:23:50.115Z,1.40
2022-11-03T11:26:33.462Z,1.27
2022-11-03T11:29:45.501Z,1.95
2022-11-03T11:32:50.197Z,1.50
2022-11-03T11:35:40.000Z,1.42
2022-11-03T11:38:44.021Z,2.17
2022-11-03T11:41:13.288Z,1.40
2022-11-03T11:43:41.219Z,1.63
2022-11-03T11:46:39.854Z,1.50
2022-11-03T11:49:20.393Z,1.38
2022-11-03T11:51:48.667Z,1.35
2022-11-03T11:54:20.869Z,1.38
2022-11-03T11:56:51.185Z,1.20
2022-11-03T11:59:25.391Z,1.30
2022-11-03T12:01:56.982Z,1.50
2022-11-03T12:04:27.765Z,1.25
2022-11-03T12:06:57.700Z,1.73
2022-11-03T12:09:28.059Z,1.27
2022-11-03T12:12:00.671Z,1.60
2022-11-03T12:14:35.549Z,1.48
2022-11-03T12:17:34.194Z,1.50
2022-11-03T12:20:02.102Z,1.58
2022-11-03T12:22:43.295Z,1.70
2022-11-03T12:25:40.224Z,1.33
2022-11-03T12:28:09.952Z,1.63
2022-11-03T12:30:46.857Z,1.20
2022-11-03T12:33:14.952Z,1.63
2022-11-03T12:35:43.490Z,1.80
2022-11-03T12:38:11.369Z,1.20
2022-11-03T12:40:39.272Z,1.63
2022-11-03T12:43:07.458Z,1.42
2022-11-03T12:45:36.931Z,1.98
2022-11-03T12:48:06.144Z,1.60
2022-11-03T12:50:34.114Z,1.50
2022-11-03T12:53:01.993Z,1.58
2022-11-03T12:55:29.862Z,1.50
2022-11-03T12:57:57.748Z,1.63
2022-11-03T13:00:25.802Z,1.92
2022-11-03T13:02:55.190Z,1.40
2022-11-03T13:05:23.214Z,1.42
2022-11-03T13:07:51.071Z,1.20
2022-11-03T13:10:19.035Z,1.50
2022-11-03T13:12:46.876Z,1.85
2022-11-03T13:15:15.838Z,1.52
2022-11-03T13:18:13.051Z,1.73
2022-11-03T13:20:33.683Z,1.85
2022-11-03T13:23:01.634Z,1.77
2022-11-03T13:25:29.863Z,2.40
2022-11-03T13:27:58.137Z,2.55
2022-11-03T13:30:27.896Z,2.15
2022-11-03T13:32:55.900Z,2.40
2022-11-03T13:35:24.135Z,1.92
2022-11-03T13:37:53.387Z,1.45
2022-11-03T13:43:09.582Z,1.75
2022-11-03T13:45:37.685Z,2.83
2022-11-03T13:50:53.861Z,1.50
2022-11-03T13:56:16.947Z,1.48
2022-11-03T14:01:37.795Z,1.67
2022-11-03T14:06:54.677Z,1.55
2022-11-03T14:09:24.245Z,1.42
2022-11-03T14:12:10.142Z,1.30
2022-11-03T14:14:38.741Z,1.83
2022-11-03T14:17:06.650Z,1.40
2022-11-03T14:19:41.555Z,1.40
2022-11-03T14:22:11.780Z,1.33
2022-11-03T14:24:41.220Z,1.33
2022-11-03T14:27:09.180Z,1.90
2022-11-03T14:29:37.169Z,1.67
2022-11-03T14:32:05.468Z,1.70
2022-11-03T14:34:33.454Z,1.73
2022-11-03T14:37:01.489Z,1.52
2022-11-03T14:39:29.572Z,1.77
2022-11-03T14:42:03.553Z,1.52
2022-11-03T14:44:31.886Z,1.48
2022-11-03T14:47:01.393Z,1.70
2022-11-03T14:49:29.426Z,2.03
2022-11-03T14:51:58.016Z,1.33
2022-11-03T14:54:26.349Z,1.73
2022-11-03T14:56:54.269Z,1.38
2022-11-03T14:59:24.377Z,1.88
2022-11-03T15:01:53.750Z,1.50
2022-11-03T15:04:24.509Z,1.58
2022-11-03T15:06:52.512Z,2.05
2022-11-03T15:09:20.632Z,1.48
2022-11-03T15:11:48.589Z,1.27
2022-11-03T15:14:16.452Z,1.30
2022-11-03T15:16:46.237Z,1.40
2022-11-03T15:19:14.595Z,1.80
2022-11-03T15:21:42.523Z,1.20
2022-11-03T15:26:58.590Z,1.73
2022-11-03T15:29:26.532Z,1.55
2022-11-03T15:31:55.796Z,1.55
2022-11-03T15:34:23.728Z,1.65
2022-11-03T15:36:51.649Z,2.17
2022-11-03T15:39:19.498Z,1.70
2022-11-03T15:41:47.397Z,1.40
2022-11-03T15:44:15.392Z,1.52
2022-11-03T15:46:43.367Z,1.45
2022-11-03T15:49:12.598Z,1.35
2022-11-03T15:51:40.756Z,1.20
2022-11-03T15:54:09.113Z,1.50
2022-11-03T15:56:37.011Z,1.63
2022-11-03T15:59:04.935Z,1.73
2022-11-03T16:01:32.970Z,1.55
2022-11-03T16:04:01.148Z,1.58
2022-11-03T16:09:18.318Z,1.70
2022-11-03T16:11:46.229Z,2.00
2022-11-03T16:14:15.031Z,1.55
2022-11-03T16:16:42.939Z,1.33
2022-11-03T16:19:11.116Z,1.80
2022-11-03T16:21:40.398Z,1.95
2022-11-03T16:24:09.097Z,1.40
2022-11-03T16:26:37.138Z,1.90
2022-11-03T16:29:05.034Z,1.50
2022-11-03T16:31:33.542Z,1.65
2022-11-03T16:34:01.474Z,2.08
2022-11-03T16:36:29.772Z,1.75
2022-11-03T16:38:59.035Z,1.83
2022-11-03T16:41:27.010Z,1.67
2022-11-03T16:43:54.872Z,1.50
2022-11-03T16:46:22.779Z,1.95
2022-11-03T16:48:50.883Z,1.80
2022-11-03T16:51:19.377Z,1.75
2022-11-03T16:53:47.302Z,1.77
2022-11-03T16:56:16.581Z,2.00
2022-11-03T16:58:44.459Z,2.22
2022-11-03T17:01:12.498Z,2.35
2022-11-03T17:03:40.571Z,1.48
2022-11-03T17:06:08.544Z,1.60
2022-11-03T17:08:52.300Z,1.83
2022-11-03T17:11:36.550Z,1.45
2022-11-03T17:14:06.352Z,1.95
2022-11-03T17:16:34.434Z,1.85
2022-11-03T17:19:02.417Z,1.65
2022-11-03T17:21:30.615Z,2.08
2022-11-03T17:23:59.859Z,2.05
2022-11-03T17:26:40.367Z,1.70
2022-11-03T17:29:16.755Z,1.63
2022-11-03T17:31:44.690Z,1.50
2022-11-03T17:34:13.008Z,1.63
2022-11-03T17:36:41.426Z,1.85
2022-11-03T17:39:10.711Z,1.70
2022-11-03T17:41:40.000Z,2.05
2022-11-03T17:44:14.487Z,1.83
2022-11-03T17:46:42.419Z,2.45
2022-11-03T17:49:10.488Z,2.03
2022-11-03T17:51:42.413Z,2.33
2022-11-03T17:54:17.066Z,2.05
2022-11-03T17:56:46.459Z,1.73
2022-11-03T17:59:16.265Z,2.17
2022-11-03T18:01:45.339Z,2.00
2022-11-03T18:06:47.520Z,2.63
2022-11-03T18:09:16.365Z,2.22
2022-11-03T18:12:03.404Z,2.17
2022-11-03T18:14:31.599Z,1.88
2022-11-03T18:17:00.097Z,1.92
2022-11-03T18:19:28.052Z,2.17
2022-11-03T18:21:56.066Z,1.75
2022-11-03T18:24:23.913Z,1.70
2022-11-03T18:26:53.172Z,1.55
2022-11-03T18:29:21.041Z,1.73
2022-11-03T18:31:50.749Z,1.90
2022-11-03T18:34:22.749Z,1.77
2022-11-03T18:36:52.648Z,1.70
2022-11-03T18:39:24.218Z,2.00
2022-11-03T18:41:53.587Z,1.55
2022-11-03T18:44:24.138Z,2.15
2022-11-03T18:46:54.543Z,2.03
2022-11-03T18:49:23.166Z,2.05
2022-11-03T18:51:56.477Z,2.10
2022-11-03T18:54:30.211Z,2.80
2022-11-03T18:56:59.581Z,1.80
2022-11-03T18:59:31.793Z,2.20
2022-11-03T19:02:00.232Z,2.15
2022-11-03T19:04:28.468Z,2.45
2022-11-03T19:06:58.507Z,2.63
2022-11-03T19:09:27.712Z,2.25
2022-11-03T19:11:58.662Z,2.08
2022-11-03T19:14:32.829Z,2.40
2022-11-03T19:17:21.894Z,1.58
2022-11-03T19:19:50.243Z,1.67
2022-11-03T19:22:20.569Z,1.95
2022-11-03T19:24:52.257Z,1.83
2022-11-03T19:27:25.547Z,2.25
2022-11-03T19:29:57.033Z,1.95
2022-11-03T19:32:26.420Z,1.70
2022-11-03T19:34:58.202Z,2.30
2022-11-03T19:37:28.770Z,1.77
2022-11-03T19:40:00.843Z,1.75
2022-11-03T19:42:27.739Z,2.58
2022-11-03T19:44:58.184Z,2.05
2022-11-03T19:47:31.699Z,1.92
2022-11-03T19:50:02.509Z,2.25
2022-11-03T19:52:32.395Z,2.20
2022-11-03T19:55:03.354Z,1.90
2022-11-03T19:57:31.445Z,3.33
2022-11-03T20:00:00.757Z,2.10
2022-11-03T20:02:29.323Z,2.13
2022-11-03T20:04:57.372Z,2.38
2022-11-03T20:07:31.072Z,2.55
2022-11-03T20:10:00.837Z,2.25
2022-11-03T20:12:30.913Z,2.40
2022-11-03T20:15:00.235Z,2.40
2022-11-03T20:17:28.194Z,2.20
2022-11-03T20:19:56.103Z,2.35
2022-11-03T20:22:30.164Z,1.95
2022-11-03T20:25:02.995Z,2.20
2022-11-03T20:27:30.980Z,1.92
2022-11-03T20:30:00.284Z,2.15
2022-11-03T20:32:28.434Z,2.30
2022-11-03T20:34:56.342Z,1.83
2022-11-03T20:37:24.479Z,2.53
2022-11-03T20:39:52.426Z,2.55
2022-11-03T20:42:23.108Z,2.40
2022-11-03T20:44:51.141Z,2.53
2022-11-03T20:47:20.947Z,2.28
2022-11-03T20:49:48.920Z,2.50
2022-11-03T20:52:17.455Z,1.95
2022-11-03T20:54:45.690Z,2.45
2022-11-03T20:57:14.431Z,2.10
2022-11-03T20:59:42.346Z,1.98
2022-11-03T21:02:12.948Z,1.55
2022-11-03T21:04:43.199Z,1.98
2022-11-03T21:07:13.748Z,2.10
2022-11-03T21:09:42.182Z,2.17
2022-11-03T21:12:13.581Z,1.80
2022-11-03T21:15:04.087Z,2.38
2022-11-03T21:17:49.718Z,1.85
2022-11-03T21:20:19.049Z,1.40
2022-11-03T21:22:54.640Z,1.92
2022-11-03T21:25:24.560Z,1.60
2022-11-03T21:27:53.737Z,2.28
2022-11-03T21:30:22.319Z,1.42
2022-11-03T21:32:50.256Z,1.73
2022-11-03T21:35:21.977Z,1.45
2022-11-03T21:37:50.259Z,1.70
2022-11-03T21:40:18.780Z,1.52
2022-11-03T21:43:03.893Z,1.80
2022-11-03T21:45:32.336Z,1.98
2022-11-03T21:48:18.175Z,2.03
2022-11-03T21:50:47.883Z,2.00
2022-11-03T21:53:15.777Z,1.77
2022-11-03T21:55:43.672Z,1.67
2022-11-03T21:58:11.547Z,1.73
2022-11-03T22:00:39.485Z,1.70
2022-11-03T22:03:07.919Z,1.63
2022-11-03T22:05:36.024Z,1.73
2022-11-03T22:08:08.216Z,1.90
2022-11-03T22:10:39.059Z,1.80
2022-11-03T22:13:07.433Z,1.48
2022-11-03T22:15:52.745Z,1.55
2022-11-03T22:18:20.685Z,2.50
2022-11-03T22:21:05.955Z,1.42
2022-11-03T22:23:52.514Z,1.83
2022-11-03T22:26:38.023Z,1.60
2022-11-03T22:29:23.103Z,1.67
2022-11-03T22:31:51.007Z,1.88
2022-11-03T22:34:36.331Z,1.70
2022-11-03T22:37:04.330Z,1.48
2022-11-03T22:39:51.006Z,1.75
2022-11-03T22:42:36.248Z,1.55
2022-11-03T22:45:21.620Z,1.58
2022-11-03T22:47:57.114Z,1.67
2022-11-03T22:50:25.687Z,1.92
2022-11-03T22:52:53.550Z,1.88
2022-11-03T22:55:22.205Z,1.73
2022-11-03T22:57:50.419Z,1.80
2022-11-03T23:00:20.433Z,1.55
2022-11-03T23:02:48.311Z,2.25
2022-11-03T23:05:16.342Z,1.92
2022-11-03T23:07:44.214Z,1.63
2022-11-03T23:10:12.083Z,1.88
2022-11-03T23:12:41.325Z,1.65
2022-11-03T23:15:27.120Z,1.67
2022-11-03T23:18:12.358Z,1.67
2022-11-03T23:20:57.443Z,1.75
2022-11-03T23:23:42.704Z,1.83
2022-11-03T23:26:10.756Z,1.52
2022-11-03T23:28:40.411Z,1.60
2022-11-03T23:31:08.820Z,1.50
2022-11-03T23:33:37.009Z,1.60
2022-11-03T23:36:05.754Z,1.67
2022-11-03T23:38:34.345Z,2.05
2022-11-03T23:41:03.001Z,1.52
2022-11-03T23:43:30.980Z,1.90
2022-11-03T23:46:17.940Z,1.30
2022-11-03T23:48:48.519Z,2.00
2022-11-03T23:51:17.139Z,1.67
2022-11-03T23:53:46.622Z,2.20
2022-11-03T23:56:32.867Z,2.05
2022-11-03T23:59:01.065Z,1.63
